createdAt,value
2018-11-26T00:02:22.659Z,89.581299
2018-11-26T00:05:51.532Z,89.581299
2018-11-26T00:09:19.531Z,89.685059
2018-11-26T00:12:47.524Z,89.685059
2018-11-26T00:16:15.417Z,89.685059
2018-11-26T00:19:43.425Z,89.685059
2018-11-26T00:23:11.412Z,89.788818
2018-11-26T00:26:39.299Z,89.685059
2018-11-26T00:30:07.253Z,89.685059
2018-11-26T00:33:35.121Z,89.685059
2018-11-26T00:37:03.007Z,89.581299
2018-11-26T00:40:30.895Z,89.581299
2018-11-26T00:43:58.764Z,89.483643
2018-11-26T00:47:26.649Z,89.276123
2018-11-26T00:50:54.537Z,89.172363
2018-11-26T00:54:22.405Z,88.964844
2018-11-26T00:57:51.284Z,88.861084
2018-11-26T01:01:19.165Z,88.690186
2018-11-26T01:04:47.048Z,88.482666
2018-11-26T01:08:14.917Z,88.38501
2018-11-26T01:11:42.797Z,88.28125
2018-11-26T01:15:10.685Z,88.17749
2018-11-26T01:18:38.548Z,88.214111
2018-11-26T01:22:06.433Z,88.110352
2018-11-26T01:25:34.307Z,88.110352
2018-11-26T01:29:02.176Z,88.006592
2018-11-26T01:32:30.057Z,88.006592
2018-11-26T01:35:57.940Z,88.049316
2018-11-26T01:39:25.807Z,88.049316
2018-11-26T01:42:54.781Z,88.153076
2018-11-26T01:46:23.064Z,88.360596
2018-11-26T01:49:51.940Z,88.464355
2018-11-26T01:53:19.809Z,88.671875
2018-11-26T01:56:47.692Z,88.775635
2018-11-26T02:00:15.572Z,88.879395
2018-11-26T02:03:43.438Z,89.086914
2018-11-26T02:07:11.318Z,89.147949
2018-11-26T02:10:39.205Z,89.251709
2018-11-26T02:14:07.072Z,89.355469
2018-11-26T02:17:34.977Z,89.459229
2018-11-26T02:21:03.853Z,89.562988
2018-11-26T02:24:31.719Z,89.666748
2018-11-26T02:27:59.601Z,89.666748
2018-11-26T02:31:27.482Z,89.727783
2018-11-26T02:34:55.372Z,89.727783
2018-11-26T02:38:24.223Z,89.624023
2018-11-26T02:41:52.110Z,89.624023
2018-11-26T02:45:19.999Z,89.520264
2018-11-26T02:48:47.870Z,89.416504
2018-11-26T02:52:15.760Z,89.312744
2018-11-26T02:55:43.648Z,89.312744
2018-11-26T02:59:12.515Z,89.312744
2018-11-26T03:02:40.399Z,89.312744
2018-11-26T03:06:08.284Z,89.208984
2018-11-26T03:09:36.151Z,89.208984
2018-11-26T03:13:05.021Z,89.105225
2018-11-26T03:16:32.909Z,89.001465
2018-11-26T03:20:00.798Z,88.897705
2018-11-26T03:23:28.662Z,88.690186
2018-11-26T03:26:56.548Z,88.525391
2018-11-26T03:30:24.437Z,88.421631
2018-11-26T03:33:53.305Z,88.421631
2018-11-26T03:37:21.183Z,88.421631
2018-11-26T03:40:49.069Z,88.421631
2018-11-26T03:44:16.940Z,88.525391
2018-11-26T03:47:44.830Z,88.525391
2018-11-26T03:51:12.714Z,88.62915
2018-11-26T03:54:40.598Z,88.62915
2018-11-26T03:58:08.488Z,88.62915
2018-11-26T04:01:36.425Z,88.62915
2018-11-26T04:05:04.313Z,88.62915
2018-11-26T04:08:32.203Z,88.73291
2018-11-26T04:12:00.092Z,88.83667
2018-11-26T04:15:27.971Z,88.83667
2018-11-26T04:18:55.852Z,88.94043
2018-11-26T04:22:23.716Z,88.83667
2018-11-26T04:25:51.590Z,88.83667
2018-11-26T04:29:19.472Z,88.775635
2018-11-26T04:32:47.341Z,88.568115
2018-11-26T04:36:15.232Z,88.464355
2018-11-26T04:39:44.093Z,88.256836
2018-11-26T04:43:11.956Z,88.049316
2018-11-26T04:46:39.836Z,87.988281
2018-11-26T04:50:08.701Z,87.884521
2018-11-26T04:53:36.583Z,87.884521
2018-11-26T04:57:05.453Z,87.884521
2018-11-26T05:00:33.376Z,87.780762
2018-11-26T05:04:01.215Z,87.713623
2018-11-26T05:07:29.075Z,87.609863
2018-11-26T05:10:56.963Z,87.506104
2018-11-26T05:14:25.840Z,87.506104
2018-11-26T05:17:53.705Z,87.506104
2018-11-26T05:21:21.586Z,87.652588
2018-11-26T05:24:49.465Z,87.756348
2018-11-26T05:28:17.335Z,87.860107
2018-11-26T05:31:45.215Z,88.067627
2018-11-26T05:35:13.100Z,88.171387
2018-11-26T05:38:40.969Z,88.378906
2018-11-26T05:42:09.857Z,88.482666
2018-11-26T05:45:37.739Z,88.586426
2018-11-26T05:49:05.600Z,88.690186
2018-11-26T05:52:33.489Z,88.793945
2018-11-26T05:56:01.372Z,88.85498
2018-11-26T05:59:29.242Z,88.85498
2018-11-26T06:02:57.132Z,88.95874
2018-11-26T06:06:26.015Z,88.95874
2018-11-26T06:09:54.899Z,88.95874
2018-11-26T06:13:22.774Z,88.95874
2018-11-26T06:16:53.538Z,89.0625
2018-11-26T06:20:20.535Z,89.0625
2018-11-26T06:23:48.409Z,88.922119
2018-11-26T06:27:16.304Z,89.025879
2018-11-26T06:30:44.199Z,88.922119
2018-11-26T06:34:12.053Z,88.922119
2018-11-26T06:37:39.944Z,88.818359
2018-11-26T06:41:08.832Z,88.922119
2018-11-26T06:44:36.718Z,88.879395
2018-11-26T06:48:04.585Z,88.879395
2018-11-26T06:51:32.470Z,88.775635
2018-11-26T06:55:00.356Z,88.775635
2018-11-26T06:58:28.227Z,88.671875
2018-11-26T07:01:56.123Z,88.671875
2018-11-26T07:05:24.021Z,88.671875
2018-11-26T07:08:51.897Z,88.568115
2018-11-26T07:12:19.803Z,88.525391
2018-11-26T07:15:47.681Z,88.421631
2018-11-26T07:19:15.554Z,88.421631
2018-11-26T07:22:43.442Z,88.317871
2018-11-26T07:26:11.353Z,88.214111
2018-11-26T07:29:39.226Z,88.17749
2018-11-26T07:33:07.092Z,88.07373
2018-11-26T07:36:34.982Z,87.969971
2018-11-26T07:40:02.925Z,87.823486
2018-11-26T07:43:30.798Z,87.719727
2018-11-26T07:46:58.676Z,87.512207
2018-11-26T07:50:26.573Z,87.268066
2018-11-26T07:53:55.430Z,87.164307
2018-11-26T07:57:23.315Z,86.956787
2018-11-26T08:00:51.209Z,86.853027
2018-11-26T08:04:19.071Z,86.602783
2018-11-26T08:07:46.962Z,86.499023
2018-11-26T08:11:14.847Z,86.291504
2018-11-26T08:14:42.720Z,86.151123
2018-11-26T08:18:10.596Z,85.943604
2018-11-26T08:21:38.503Z,85.803223
2018-11-26T08:25:06.378Z,85.595703
2018-11-26T08:28:34.270Z,85.491943
2018-11-26T08:32:03.148Z,85.241699
2018-11-26T08:35:31.036Z,84.936523
2018-11-26T08:38:58.919Z,84.686279
2018-11-26T08:42:27.800Z,84.588623
2018-11-26T08:45:55.687Z,84.588623
2018-11-26T08:49:23.554Z,84.338379
2018-11-26T08:52:51.443Z,84.130859
2018-11-26T08:56:19.336Z,84.033203
2018-11-26T08:59:47.210Z,83.782959
2018-11-26T09:03:15.099Z,83.581543
2018-11-26T09:06:42.983Z,83.538818
2018-11-26T09:10:10.866Z,83.331299
2018-11-26T09:13:38.741Z,83.129883
2018-11-26T09:17:06.623Z,82.983398
2018-11-26T09:20:34.510Z,82.885742
2018-11-26T09:24:02.374Z,82.537842
2018-11-26T09:27:31.251Z,82.226562
2018-11-26T09:30:59.131Z,81.878662
2018-11-26T09:34:27.048Z,81.530762
2018-11-26T09:37:54.882Z,81.427002
2018-11-26T09:41:22.769Z,81.427002
2018-11-26T09:44:50.633Z,81.494141
2018-11-26T09:48:18.527Z,81.494141
2018-11-26T09:51:46.407Z,81.390381
2018-11-26T09:55:14.296Z,81.390381
2018-11-26T09:58:42.170Z,81.188965
2018-11-26T10:02:10.060Z,81.048584
2018-11-26T10:05:37.934Z,81.085205
2018-11-26T10:09:05.797Z,81.085205
2018-11-26T10:12:33.690Z,80.737305
2018-11-26T10:16:01.580Z,80.841064
2018-11-26T10:19:29.450Z,81.085205
2018-11-26T10:22:57.343Z,80.981445
2018-11-26T10:26:25.242Z,80.877686
2018-11-26T10:29:53.107Z,80.328369
2018-11-26T10:33:21.003Z,80.46875
2018-11-26T10:36:48.891Z,80.773926
2018-11-26T10:40:16.778Z,80.670166
2018-11-26T10:43:44.655Z,80.670166
2018-11-26T10:47:12.542Z,80.46875
2018-11-26T10:50:40.432Z,80.46875
2018-11-26T10:54:08.298Z,80.566406
2018-11-26T10:57:36.182Z,80.566406
2018-11-26T11:01:04.060Z,80.670166
2018-11-26T11:04:31.925Z,80.877686
2018-11-26T11:08:00.809Z,81.085205
2018-11-26T11:11:28.690Z,81.225586
2018-11-26T11:14:56.553Z,81.329346
2018-11-26T11:18:24.441Z,81.121826
2018-11-26T11:21:52.374Z,75.866699
2018-11-26T11:25:20.260Z,73.400879
2018-11-26T11:28:48.123Z,73.4375
2018-11-26T11:32:16.007Z,73.400879
2018-11-26T11:35:43.903Z,72.30835
2018-11-26T11:39:11.772Z,72.30835
2018-11-26T11:42:39.655Z,73.571777
2018-11-26T11:46:07.539Z,74.523926
2018-11-26T11:49:35.405Z,75.140381
2018-11-26T11:53:03.289Z,74.664307
2018-11-26T11:56:31.174Z,74.865723
2018-11-26T11:59:59.058Z,74.798584
2018-11-26T12:03:26.945Z,74.731445
2018-11-26T12:06:55.506Z,74.768066
2018-11-26T12:10:23.386Z,74.804688
2018-11-26T12:13:51.304Z,74.597168
2018-11-26T12:17:19.210Z,74.938965
2018-11-26T12:20:47.083Z,75.45166
2018-11-26T12:24:14.951Z,75.793457
2018-11-26T12:27:43.784Z,76.037598
2018-11-26T12:31:11.664Z,76.580811
2018-11-26T12:34:39.527Z,77.099609
2018-11-26T12:38:09.477Z,77.301025
2018-11-26T12:41:37.365Z,76.342773
2018-11-26T12:45:05.247Z,77.062988
2018-11-26T12:48:34.106Z,77.679443
2018-11-26T12:52:02.001Z,77.679443
2018-11-26T12:55:31.393Z,77.709961
2018-11-26T12:58:59.267Z,77.91748
2018-11-26T13:02:27.154Z,78.125
2018-11-26T13:05:55.046Z,78.125
2018-11-26T13:09:22.905Z,78.02124
2018-11-26T13:12:50.794Z,78.125
2018-11-26T13:16:19.656Z,78.466797
2018-11-26T13:19:47.641Z,78.570557
2018-11-26T13:23:15.523Z,78.570557
2018-11-26T13:26:43.401Z,78.161621
2018-11-26T13:30:12.012Z,78.057861
2018-11-26T13:33:39.874Z,77.954102
2018-11-26T13:37:08.740Z,77.954102
2018-11-26T13:40:36.624Z,77.954102
2018-11-26T13:44:04.533Z,78.161621
2018-11-26T13:47:32.424Z,78.466797
2018-11-26T13:51:00.304Z,78.710938
2018-11-26T13:54:28.173Z,78.918457
2018-11-26T13:57:56.066Z,79.223633
2018-11-26T14:01:23.967Z,79.467773
2018-11-26T14:04:52.844Z,79.669189
2018-11-26T14:08:20.859Z,79.876709
2018-11-26T14:11:48.739Z,80.12085
2018-11-26T14:15:16.619Z,80.328369
2018-11-26T14:18:44.764Z,80.426025
2018-11-26T14:22:12.671Z,80.773926
2018-11-26T14:25:41.558Z,80.877686
2018-11-26T14:29:09.430Z,81.121826
2018-11-26T14:32:37.364Z,81.329346
2018-11-26T14:36:05.242Z,81.530762
2018-11-26T14:39:33.133Z,81.774902
2018-11-26T14:43:01.038Z,81.878662
2018-11-26T14:46:28.919Z,82.086182
2018-11-26T14:49:58.780Z,82.226562
2018-11-26T14:53:26.674Z,82.434082
2018-11-26T14:56:54.660Z,82.641602
2018-11-26T15:00:22.530Z,82.781982
2018-11-26T15:03:50.412Z,82.885742
2018-11-26T15:07:18.319Z,83.087158
2018-11-26T15:10:46.184Z,83.294678
2018-11-26T15:14:14.203Z,83.435059
2018-11-26T15:17:43.075Z,83.538818
2018-11-26T15:21:10.956Z,83.782959
2018-11-26T15:24:38.821Z,83.886719
2018-11-26T15:28:06.727Z,83.990479
2018-11-26T15:31:34.603Z,84.197998
2018-11-26T15:35:02.505Z,84.338379
2018-11-26T15:38:30.353Z,84.442139
2018-11-26T15:41:58.240Z,84.442139
2018-11-26T15:45:26.109Z,84.649658
2018-11-26T15:48:53.989Z,84.790039
2018-11-26T15:52:21.869Z,84.893799
2018-11-26T15:55:49.755Z,84.997559
2018-11-26T15:59:17.623Z,85.205078
2018-11-26T16:02:45.516Z,85.308838
2018-11-26T16:06:13.410Z,85.449219
2018-11-26T16:09:42.274Z,85.552979
2018-11-26T16:13:10.161Z,85.656738
2018-11-26T16:16:38.038Z,85.760498
2018-11-26T16:20:05.986Z,85.968018
2018-11-26T16:23:33.912Z,85.968018
2018-11-26T16:27:01.794Z,85.968018
2018-11-26T16:30:29.669Z,85.906982
2018-11-26T16:33:57.544Z,85.906982
2018-11-26T16:37:25.430Z,85.803223
2018-11-26T16:40:53.312Z,85.906982
2018-11-26T16:44:21.182Z,86.047363
2018-11-26T16:47:49.076Z,86.151123
2018-11-26T16:51:16.958Z,86.462402
2018-11-26T16:54:44.823Z,86.462402
2018-11-26T16:58:12.702Z,86.462402
2018-11-26T17:01:41.587Z,86.566162
2018-11-26T17:05:09.451Z,86.566162
2018-11-26T17:08:37.335Z,86.602783
2018-11-26T17:12:05.220Z,86.706543
2018-11-26T17:15:33.108Z,86.706543
2018-11-26T17:19:00.974Z,86.810303
2018-11-26T17:22:28.878Z,86.810303
2018-11-26T17:25:58.886Z,86.914062
2018-11-26T17:29:26.756Z,87.017822
2018-11-26T17:32:54.634Z,87.017822
2018-11-26T17:36:22.519Z,87.017822
2018-11-26T17:39:50.389Z,87.017822
2018-11-26T17:43:18.273Z,87.017822
2018-11-26T17:46:46.166Z,86.914062
2018-11-26T17:50:15.035Z,86.914062
2018-11-26T17:53:42.957Z,86.914062
2018-11-26T17:57:10.836Z,86.914062
2018-11-26T18:00:38.726Z,86.914062
2018-11-26T18:04:06.623Z,86.914062
2018-11-26T18:07:34.544Z,86.914062
2018-11-26T18:11:02.428Z,86.914062
2018-11-26T18:14:30.296Z,86.810303
2018-11-26T18:17:58.203Z,86.810303
2018-11-26T18:21:26.153Z,86.810303
2018-11-26T18:24:54.028Z,86.810303
2018-11-26T18:28:21.915Z,86.810303
2018-11-26T18:31:49.797Z,86.853027
2018-11-26T18:35:17.669Z,86.853027
2018-11-26T18:38:46.567Z,86.853027
2018-11-26T18:42:14.471Z,86.749268
2018-11-26T18:45:43.351Z,86.749268
2018-11-26T18:49:12.927Z,86.749268
2018-11-26T18:52:40.850Z,86.785889
2018-11-26T18:56:08.740Z,86.785889
2018-11-26T18:59:37.711Z,86.785889
2018-11-26T19:03:05.603Z,86.889648
2018-11-26T19:06:33.499Z,86.889648
2018-11-26T19:10:02.963Z,86.889648
2018-11-26T19:13:31.859Z,86.993408
2018-11-26T19:16:59.802Z,87.036133
2018-11-26T19:20:27.686Z,87.036133
2018-11-26T19:23:55.555Z,87.036133
2018-11-26T19:27:23.444Z,87.139893
2018-11-26T19:30:51.332Z,87.139893
2018-11-26T19:34:19.203Z,87.139893
2018-11-26T19:37:47.087Z,87.139893
2018-11-26T19:41:14.969Z,87.036133
2018-11-26T19:44:42.849Z,87.036133
2018-11-26T19:48:10.803Z,86.932373
2018-11-26T19:51:39.571Z,86.932373
2018-11-26T19:55:10.083Z,86.828613
2018-11-26T19:58:39.045Z,86.828613
2018-11-26T20:02:06.930Z,86.761475
2018-11-26T20:05:34.813Z,86.553955
2018-11-26T20:09:02.680Z,86.450195
2018-11-26T20:12:30.564Z,86.14502
2018-11-26T20:15:59.445Z,86.04126
2018-11-26T20:19:27.610Z,85.974121
2018-11-26T20:22:55.540Z,85.662842
2018-11-26T20:26:23.636Z,85.662842
2018-11-26T20:29:51.521Z,85.455322
2018-11-26T20:33:19.433Z,85.601807
2018-11-26T20:36:47.332Z,85.601807
2018-11-26T20:40:15.201Z,85.498047
2018-11-26T20:43:44.075Z,85.534668
2018-11-26T20:47:11.973Z,85.534668
2018-11-26T20:50:39.934Z,85.534668
2018-11-26T20:54:07.844Z,85.638428
2018-11-26T20:57:35.730Z,85.675049
2018-11-26T21:01:03.638Z,85.778809
2018-11-26T21:04:31.513Z,85.882568
2018-11-26T21:07:59.401Z,85.986328
2018-11-26T21:11:27.282Z,86.090088
2018-11-26T21:14:56.163Z,86.193848
2018-11-26T21:18:24.022Z,86.407471
2018-11-26T21:21:51.903Z,86.61499
2018-11-26T21:25:19.815Z,86.71875
2018-11-26T21:28:47.681Z,86.92627
2018-11-26T21:32:15.576Z,87.030029
2018-11-26T21:35:43.470Z,87.030029
2018-11-26T21:39:11.351Z,87.237549
2018-11-26T21:42:39.240Z,87.237549
2018-11-26T21:46:07.122Z,87.341309
2018-11-26T21:49:35.006Z,87.341309
2018-11-26T21:53:02.918Z,87.445068
2018-11-26T21:56:30.811Z,87.506104
2018-11-26T21:59:58.679Z,87.506104
2018-11-26T22:03:30.483Z,87.609863
2018-11-26T22:06:57.417Z,87.609863
2018-11-26T22:10:25.347Z,87.713623
2018-11-26T22:13:53.218Z,87.713623
2018-11-26T22:17:22.103Z,87.677002
2018-11-26T22:20:49.995Z,87.677002
2018-11-26T22:24:17.870Z,87.780762
2018-11-26T22:27:46.745Z,87.677002
2018-11-26T22:31:14.625Z,87.677002
2018-11-26T22:34:42.493Z,87.677002
2018-11-26T22:38:10.379Z,87.677002
2018-11-26T22:41:38.257Z,87.677002
2018-11-26T22:45:06.128Z,87.573242
2018-11-26T22:48:34.993Z,87.530518
2018-11-26T22:52:02.886Z,87.530518
2018-11-26T22:55:30.767Z,87.530518
2018-11-26T22:58:58.633Z,87.426758
2018-11-26T23:02:26.520Z,87.426758
2018-11-26T23:05:54.407Z,87.426758
2018-11-26T23:09:22.268Z,87.322998
2018-11-26T23:12:50.153Z,87.322998
2018-11-26T23:16:18.032Z,87.219238
2018-11-26T23:19:45.894Z,87.219238
2018-11-26T23:23:13.776Z,87.115479
2018-11-26T23:26:41.663Z,87.115479
2018-11-26T23:30:09.525Z,87.115479
2018-11-26T23:33:37.412Z,87.115479
2018-11-26T23:37:05.300Z,87.115479
2018-11-26T23:40:34.172Z,87.011719
2018-11-26T23:44:02.035Z,86.907959
2018-11-26T23:47:30.907Z,86.907959
2018-11-26T23:50:58.790Z,86.804199
2018-11-26T23:54:26.657Z,86.804199
2018-11-26T23:57:54.535Z,86.804199
